createdAt,value
2022-08-19T00:02:06.255Z,18.49
2022-08-19T00:04:37.686Z,18.53
2022-08-19T00:07:07.947Z,18.48
2022-08-19T00:09:38.423Z,18.46
2022-08-19T00:12:07.819Z,18.55
2022-08-19T00:14:37.164Z,18.46
2022-08-19T00:17:09.103Z,18.43
2022-08-19T00:19:39.226Z,18.45
2022-08-19T00:22:09.687Z,18.47
2022-08-19T00:24:42.050Z,18.42
2022-08-19T00:27:25.688Z,18.42
2022-08-19T00:29:55.927Z,18.49
2022-08-19T00:32:25.512Z,18.53
2022-08-19T00:34:56.181Z,18.57
2022-08-19T00:37:27.863Z,18.67
2022-08-19T00:39:58.214Z,18.59
2022-08-19T00:42:29.364Z,18.64
2022-08-19T00:44:58.217Z,18.64
2022-08-19T00:47:26.889Z,18.65
2022-08-19T00:49:59.270Z,18.54
2022-08-19T00:52:31.798Z,18.64
2022-08-19T00:55:03.358Z,18.68
2022-08-19T00:57:37.008Z,18.65
2022-08-19T01:00:12.467Z,18.58
2022-08-19T01:02:42.348Z,18.65
2022-08-19T01:05:15.976Z,18.64
2022-08-19T01:07:45.900Z,18.69
2022-08-19T01:10:20.035Z,18.64
2022-08-19T01:12:50.102Z,18.60
2022-08-19T01:15:21.982Z,18.59
2022-08-19T01:17:54.007Z,18.59
2022-08-19T01:20:26.945Z,18.60
2022-08-19T01:23:00.466Z,18.62
2022-08-19T01:25:34.174Z,18.61
2022-08-19T01:28:10.544Z,18.65
2022-08-19T01:30:39.960Z,18.63
2022-08-19T01:33:13.236Z,18.56
2022-08-19T01:35:42.696Z,18.47
2022-08-19T01:38:24.536Z,18.51
2022-08-19T01:40:53.841Z,18.47
2022-08-19T01:43:22.614Z,18.43
2022-08-19T01:45:51.967Z,18.43
2022-08-19T01:48:21.184Z,18.50
2022-08-19T01:50:49.857Z,18.50
2022-08-19T01:53:21.227Z,18.53
2022-08-19T01:55:52.802Z,18.61
2022-08-19T01:58:26.480Z,18.61
2022-08-19T02:00:59.805Z,18.65
2022-08-19T02:03:30.007Z,18.59
2022-08-19T02:06:00.554Z,18.50
2022-08-19T02:08:32.058Z,18.51
2022-08-19T02:11:00.976Z,18.38
2022-08-19T02:13:29.694Z,18.33
2022-08-19T02:15:58.889Z,18.31
2022-08-19T02:18:29.232Z,18.25
2022-08-19T02:20:57.708Z,18.25
2022-08-19T02:23:26.306Z,18.24
2022-08-19T02:25:56.908Z,18.22
2022-08-19T02:28:25.460Z,18.26
2022-08-19T02:30:54.185Z,18.26
2022-08-19T02:33:22.714Z,18.13
2022-08-19T02:35:52.057Z,18.12
2022-08-19T02:38:28.976Z,18.16
2022-08-19T02:41:01.481Z,18.19
2022-08-19T02:43:34.502Z,18.19
2022-08-19T02:46:04.474Z,18.15
2022-08-19T02:48:33.930Z,18.20
2022-08-19T02:51:02.975Z,18.24
2022-08-19T02:53:31.606Z,18.19
2022-08-19T02:56:01.765Z,18.20
2022-08-19T02:58:31.123Z,18.12
2022-08-19T03:01:01.371Z,18.19
2022-08-19T03:03:30.624Z,18.26
2022-08-19T03:06:08.529Z,18.32
2022-08-19T03:08:38.060Z,18.24
2022-08-19T03:11:08.191Z,18.26
2022-08-19T03:13:39.242Z,18.27
2022-08-19T03:16:08.266Z,18.32
2022-08-19T03:18:37.024Z,18.33
2022-08-19T03:21:07.722Z,18.26
2022-08-19T03:23:41.113Z,18.29
2022-08-19T03:26:16.832Z,18.38
2022-08-19T03:28:49.429Z,18.37
2022-08-19T03:31:44.564Z,18.40
2022-08-19T03:34:12.665Z,18.33
2022-08-19T03:36:42.259Z,18.38
2022-08-19T03:39:12.109Z,18.36
2022-08-19T03:41:46.221Z,18.30
2022-08-19T03:44:16.996Z,18.26
2022-08-19T03:46:49.005Z,18.16
2022-08-19T03:49:18.438Z,18.16
2022-08-19T03:51:48.720Z,18.09
2022-08-19T03:54:20.038Z,18.13
2022-08-19T03:56:52.287Z,18.15
2022-08-19T03:59:26.691Z,18.17
2022-08-19T04:01:56.693Z,18.14
2022-08-19T04:04:29.342Z,18.07
2022-08-19T04:06:58.848Z,18.12
2022-08-19T04:09:27.964Z,18.09
2022-08-19T04:11:59.749Z,18.09
2022-08-19T04:14:31.503Z,18.18
2022-08-19T04:17:01.479Z,18.12
2022-08-19T04:19:33.064Z,18.10
2022-08-19T04:22:01.716Z,18.04
2022-08-19T04:24:30.283Z,17.98
2022-08-19T04:27:01.510Z,17.87
2022-08-19T04:29:30.492Z,17.78
2022-08-19T04:32:09.453Z,17.65
2022-08-19T04:35:02.575Z,17.53
2022-08-19T04:37:34.996Z,17.50
2022-08-19T04:40:25.247Z,17.36
2022-08-19T04:42:55.695Z,17.30
2022-08-19T04:45:24.670Z,17.16
2022-08-19T04:48:26.223Z,17.01
2022-08-19T04:50:46.937Z,17.02
2022-08-19T04:53:16.331Z,17.01
2022-08-19T04:55:46.026Z,16.94
2022-08-19T04:58:17.504Z,16.92
2022-08-19T05:00:46.323Z,16.89
2022-08-19T05:03:16.649Z,16.80
2022-08-19T05:05:45.645Z,16.87
2022-08-19T05:08:19.469Z,16.87
2022-08-19T05:11:01.135Z,16.85
2022-08-19T05:13:31.260Z,16.84
2022-08-19T05:16:01.820Z,16.83
2022-08-19T05:18:49.338Z,16.83
2022-08-19T05:21:38.672Z,16.88
2022-08-19T05:24:09.829Z,16.92
2022-08-19T05:26:38.645Z,17.01
2022-08-19T05:29:10.481Z,16.96
2022-08-19T05:31:41.985Z,16.89
2022-08-19T05:34:20.495Z,16.92
2022-08-19T05:36:50.260Z,16.95
2022-08-19T05:39:21.329Z,16.91
2022-08-19T05:41:52.701Z,16.97
2022-08-19T05:44:23.156Z,17.08
2022-08-19T05:46:53.968Z,17.09
2022-08-19T05:49:24.517Z,17.04
2022-08-19T05:51:53.820Z,17.09
2022-08-19T05:54:24.040Z,17.10
2022-08-19T05:56:53.741Z,17.14
2022-08-19T05:59:25.025Z,17.18
2022-08-19T06:01:55.304Z,17.15
2022-08-19T06:04:24.138Z,17.24
2022-08-19T06:06:54.708Z,17.43
2022-08-19T06:09:25.153Z,17.44
2022-08-19T06:11:56.082Z,17.48
2022-08-19T06:14:29.587Z,17.53
2022-08-19T06:16:58.918Z,17.41
2022-08-19T06:19:29.297Z,17.55
2022-08-19T06:21:59.341Z,17.72
2022-08-19T06:24:30.473Z,17.71
2022-08-19T06:27:01.424Z,17.68
2022-08-19T06:29:33.087Z,17.68
2022-08-19T06:32:04.049Z,17.86
2022-08-19T06:34:34.859Z,18.08
2022-08-19T06:37:04.173Z,18.20
2022-08-19T06:39:37.302Z,18.27
2022-08-19T06:42:10.921Z,18.42
2022-08-19T06:44:48.075Z,18.41
2022-08-19T06:47:24.037Z,18.46
2022-08-19T06:50:02.905Z,18.53
2022-08-19T06:52:34.288Z,18.66
2022-08-19T06:55:06.402Z,18.47
2022-08-19T06:57:36.171Z,18.74
2022-08-19T07:00:13.045Z,18.85
2022-08-19T07:02:48.080Z,18.97
2022-08-19T07:05:24.705Z,18.96
2022-08-19T07:07:53.413Z,18.95
2022-08-19T07:10:26.586Z,18.97
2022-08-19T07:12:55.468Z,19.09
2022-08-19T07:15:25.665Z,19.18
2022-08-19T07:17:54.238Z,19.09
2022-08-19T07:20:28.817Z,19.08
2022-08-19T07:22:58.094Z,19.16
2022-08-19T07:25:32.469Z,19.33
2022-08-19T07:28:02.219Z,19.30
2022-08-19T07:30:32.649Z,19.34
2022-08-19T07:33:03.755Z,19.34
2022-08-19T07:35:33.042Z,19.54
2022-08-19T07:38:04.720Z,19.45
2022-08-19T07:40:33.309Z,19.44
2022-08-19T07:43:01.897Z,19.63
2022-08-19T07:45:30.633Z,19.62
2022-08-19T07:48:02.027Z,19.74
2022-08-19T07:50:30.939Z,19.83
2022-08-19T07:52:59.549Z,20.06
2022-08-19T07:55:41.039Z,20.13
2022-08-19T07:58:12.887Z,20.02
2022-08-19T08:00:43.066Z,20.15
2022-08-19T08:03:14.160Z,20.21
2022-08-19T08:06:00.901Z,20.28
2022-08-19T08:08:48.075Z,20.52
2022-08-19T08:11:20.462Z,20.89
2022-08-19T08:14:00.316Z,20.56
2022-08-19T08:16:32.220Z,20.82
2022-08-19T08:19:02.348Z,20.94
2022-08-19T08:21:30.971Z,21.08
2022-08-19T08:26:29.337Z,20.99
2022-08-19T08:29:02.485Z,21.23
2022-08-19T08:31:42.758Z,21.33
2022-08-19T08:34:15.679Z,21.64
2022-08-19T08:36:47.303Z,21.77
2022-08-19T08:39:18.455Z,21.74
2022-08-19T08:41:55.176Z,21.30
2022-08-19T08:44:43.842Z,21.72
2022-08-19T08:47:19.137Z,21.61
2022-08-19T08:49:56.862Z,21.78
2022-08-19T08:52:32.104Z,21.95
2022-08-19T08:55:10.442Z,21.74
2022-08-19T08:57:44.823Z,21.96
2022-08-19T09:00:19.616Z,21.73
2022-08-19T09:02:50.398Z,22.57
2022-08-19T09:05:22.709Z,22.62
2022-08-19T09:08:02.639Z,22.79
2022-08-19T09:10:44.377Z,23.03
2022-08-19T09:13:24.352Z,23.04
2022-08-19T09:16:02.003Z,22.98
2022-08-19T09:18:41.036Z,22.30
2022-08-19T09:21:11.337Z,22.51
2022-08-19T09:23:40.521Z,22.64
2022-08-19T09:26:10.908Z,22.67
2022-08-19T09:28:43.424Z,22.40
2022-08-19T09:31:13.089Z,22.03
2022-08-19T09:33:44.506Z,22.32
2022-08-19T09:36:31.170Z,22.37
2022-08-19T09:39:03.884Z,22.45
2022-08-19T09:41:32.544Z,22.47
2022-08-19T09:44:02.747Z,22.58
2022-08-19T09:46:32.582Z,22.69
2022-08-19T09:49:03.155Z,24.11
2022-08-19T09:51:36.773Z,24.59
2022-08-19T09:54:06.753Z,26.37
2022-08-19T09:56:35.870Z,27.05
2022-08-19T09:59:05.607Z,27.93
2022-08-19T10:01:34.832Z,28.46
2022-08-19T10:04:14.659Z,29.20
2022-08-19T10:06:53.634Z,28.76
2022-08-19T10:09:33.727Z,30.19
2022-08-19T10:12:06.107Z,29.97
2022-08-19T10:14:35.117Z,29.06
2022-08-19T10:17:19.247Z,28.44
2022-08-19T10:19:55.196Z,29.31
2022-08-19T10:22:26.250Z,29.32
2022-08-19T10:24:55.165Z,28.49
2022-08-19T10:27:23.941Z,29.77
2022-08-19T10:29:55.496Z,30.45
2022-08-19T10:32:33.713Z,28.51
2022-08-19T10:35:05.318Z,28.51
2022-08-19T10:37:36.339Z,27.91
2022-08-19T10:40:25.245Z,27.91
2022-08-19T10:42:53.837Z,27.34
2022-08-19T10:45:23.818Z,28.22
2022-08-19T10:47:52.848Z,27.93
2022-08-19T10:50:39.652Z,28.60
2022-08-19T10:53:10.689Z,28.08
2022-08-19T10:55:56.975Z,28.96
2022-08-19T10:58:26.958Z,28.43
2022-08-19T11:00:57.642Z,30.06
2022-08-19T11:03:29.038Z,30.27
2022-08-19T11:06:01.892Z,29.49
2022-08-19T11:08:32.123Z,28.53
2022-08-19T11:11:04.106Z,29.60
2022-08-19T11:13:34.502Z,29.71
2022-08-19T11:16:07.838Z,31.74
2022-08-19T11:18:39.496Z,31.11
2022-08-19T11:21:10.501Z,31.44
2022-08-19T11:23:40.874Z,30.02
2022-08-19T11:26:09.636Z,31.20
2022-08-19T11:28:39.594Z,30.98
2022-08-19T11:31:13.019Z,29.34
2022-08-19T11:33:47.227Z,30.17
2022-08-19T11:36:17.458Z,29.92
2022-08-19T11:38:49.365Z,31.51
2022-08-19T11:41:19.753Z,31.65
2022-08-19T11:43:48.580Z,31.30
2022-08-19T11:46:18.381Z,31.70
2022-08-19T11:48:46.960Z,31.62
2022-08-19T11:51:20.544Z,31.81
2022-08-19T11:53:51.349Z,31.66
2022-08-19T11:56:20.881Z,30.80
2022-08-19T11:58:49.578Z,30.56
2022-08-19T12:01:21.373Z,31.77
2022-08-19T12:03:51.854Z,30.77
2022-08-19T12:06:29.488Z,31.30
2022-08-19T12:09:01.183Z,29.98
2022-08-19T12:11:31.317Z,30.00
2022-08-19T12:14:03.239Z,29.67
2022-08-19T12:16:33.861Z,30.22
2022-08-19T12:19:05.163Z,29.51
2022-08-19T12:21:36.484Z,28.58
2022-08-19T12:24:08.670Z,28.81
2022-08-19T12:26:53.329Z,28.61
2022-08-19T12:29:29.573Z,30.19
2022-08-19T12:32:02.125Z,30.72
2022-08-19T12:34:32.164Z,31.47
2022-08-19T12:37:06.815Z,30.88
2022-08-19T12:39:42.331Z,30.43
2022-08-19T12:42:11.429Z,30.37
2022-08-19T12:44:42.733Z,31.10
2022-08-19T12:47:14.163Z,30.62
2022-08-19T12:49:53.597Z,29.98
2022-08-19T12:52:25.955Z,30.24
2022-08-19T12:54:58.065Z,30.81
2022-08-19T12:57:32.942Z,30.39
2022-08-19T13:00:07.124Z,31.86
2022-08-19T13:02:38.362Z,32.30
2022-08-19T13:05:10.938Z,32.81
2022-08-19T13:07:40.770Z,31.89
2022-08-19T13:10:13.364Z,33.13
2022-08-19T13:12:42.823Z,32.45
2022-08-19T13:15:12.786Z,31.14
2022-08-19T13:17:44.004Z,31.18
2022-08-19T13:20:13.563Z,32.71
2022-08-19T13:22:42.191Z,34.17
2022-08-19T13:25:13.753Z,32.99
2022-08-19T13:27:42.380Z,32.66
2022-08-19T13:30:31.436Z,33.29
2022-08-19T13:33:18.986Z,33.10
2022-08-19T13:35:50.198Z,33.09
2022-08-19T13:38:21.628Z,31.65
2022-08-19T13:40:53.659Z,32.22
2022-08-19T13:43:24.146Z,32.85
2022-08-19T13:45:55.886Z,33.42
2022-08-19T13:48:26.199Z,32.62
2022-08-19T13:50:55.317Z,34.01
2022-08-19T13:53:24.599Z,33.81
2022-08-19T13:55:55.130Z,33.10
2022-08-19T13:58:24.433Z,32.90
2022-08-19T14:00:53.098Z,33.45
2022-08-19T14:03:21.710Z,34.13
2022-08-19T14:05:50.365Z,34.07
2022-08-19T14:08:19.609Z,32.81
2022-08-19T14:10:49.853Z,32.79
2022-08-19T14:13:21.997Z,33.37
2022-08-19T14:15:51.742Z,32.94
2022-08-19T14:18:21.093Z,33.71
2022-08-19T14:20:50.108Z,32.58
2022-08-19T14:23:18.652Z,32.57
2022-08-19T14:25:47.532Z,32.49
2022-08-19T14:28:17.708Z,32.31
2022-08-19T14:30:47.616Z,31.91
2022-08-19T14:33:16.134Z,33.32
2022-08-19T14:35:45.705Z,32.98
2022-08-19T14:38:19.177Z,33.96
2022-08-19T14:40:58.718Z,33.03
2022-08-19T14:43:27.238Z,32.92
2022-08-19T14:45:57.923Z,33.29
2022-08-19T14:48:29.071Z,34.31
2022-08-19T14:50:58.494Z,34.34
2022-08-19T14:53:27.273Z,32.97
2022-08-19T14:55:55.780Z,34.22
2022-08-19T14:58:29.783Z,33.79
2022-08-19T15:01:01.289Z,34.38
2022-08-19T15:03:30.396Z,32.33
2022-08-19T15:05:59.110Z,32.33
2022-08-19T15:08:28.652Z,32.49
2022-08-19T15:10:57.785Z,31.50
2022-08-19T15:13:27.829Z,32.28
2022-08-19T15:15:56.711Z,32.98
2022-08-19T15:18:27.465Z,32.52
2022-08-19T15:20:56.452Z,32.39
2022-08-19T15:23:25.536Z,33.42
2022-08-19T15:25:55.892Z,32.86
2022-08-19T15:28:25.604Z,32.69
2022-08-19T15:30:54.898Z,34.17
2022-08-19T15:33:23.429Z,33.95
2022-08-19T15:35:54.155Z,32.42
2022-08-19T15:38:24.437Z,32.97
2022-08-19T15:40:53.271Z,32.21
2022-08-19T15:43:23.231Z,31.70
2022-08-19T15:45:51.812Z,33.34
2022-08-19T15:48:20.371Z,32.80
2022-08-19T15:50:49.315Z,32.27
2022-08-19T15:53:19.345Z,32.64
2022-08-19T15:55:48.568Z,33.85
2022-08-19T15:58:35.158Z,33.94
2022-08-19T16:01:26.986Z,32.55
2022-08-19T16:04:15.834Z,33.60
2022-08-19T16:06:46.863Z,33.18
2022-08-19T16:09:20.311Z,32.25
2022-08-19T16:11:56.711Z,33.04
2022-08-19T16:14:26.985Z,32.60
2022-08-19T16:16:56.827Z,33.65
2022-08-19T16:19:26.151Z,33.37
2022-08-19T16:21:57.100Z,34.39
2022-08-19T16:24:29.452Z,34.71
2022-08-19T16:26:58.804Z,32.54
2022-08-19T16:29:34.572Z,32.90
2022-08-19T16:32:10.993Z,32.28
2022-08-19T16:34:40.229Z,32.58
2022-08-19T16:37:10.202Z,31.85
2022-08-19T16:39:40.971Z,32.50
2022-08-19T16:42:13.995Z,33.16
2022-08-19T16:44:46.099Z,32.22
2022-08-19T16:47:16.528Z,31.72
2022-08-19T16:49:54.366Z,31.10
2022-08-19T16:52:26.457Z,31.63
2022-08-19T16:54:56.774Z,33.29
2022-08-19T16:57:25.693Z,33.28
2022-08-19T16:59:54.699Z,32.53
2022-08-19T17:02:29.716Z,31.87
2022-08-19T17:04:59.530Z,30.96
2022-08-19T17:07:28.741Z,30.55
2022-08-19T17:09:58.635Z,29.90
2022-08-19T17:12:31.717Z,29.58
2022-08-19T17:15:02.400Z,29.09
2022-08-19T17:17:32.846Z,28.84
2022-08-19T17:20:03.593Z,28.56
2022-08-19T17:22:32.413Z,29.08
2022-08-19T17:25:02.414Z,29.27
2022-08-19T17:27:31.601Z,29.66
2022-08-19T17:30:02.649Z,28.67
2022-08-19T17:32:35.153Z,28.40
2022-08-19T17:35:05.443Z,27.74
2022-08-19T17:37:34.989Z,27.33
2022-08-19T17:40:07.091Z,27.15
2022-08-19T17:42:36.553Z,27.15
2022-08-19T17:45:06.023Z,27.31
2022-08-19T17:47:34.569Z,27.27
2022-08-19T17:50:03.353Z,27.38
2022-08-19T17:52:31.963Z,27.32
2022-08-19T17:55:00.502Z,27.10
2022-08-19T17:57:30.599Z,26.69
2022-08-19T17:59:59.551Z,26.46
2022-08-19T18:02:28.167Z,26.22
2022-08-19T18:04:58.621Z,26.21
2022-08-19T18:07:27.264Z,25.92
2022-08-19T18:09:55.935Z,25.80
2022-08-19T18:12:27.028Z,25.85
2022-08-19T18:14:58.748Z,25.72
2022-08-19T18:17:27.425Z,25.50
2022-08-19T18:19:55.950Z,25.29
2022-08-19T18:22:28.134Z,25.05
2022-08-19T18:24:57.457Z,25.15
2022-08-19T18:27:27.021Z,24.85
2022-08-19T18:29:59.242Z,24.93
2022-08-19T18:32:30.401Z,24.92
2022-08-19T18:35:00.928Z,24.97
2022-08-19T18:37:30.334Z,24.80
2022-08-19T18:40:16.561Z,24.85
2022-08-19T18:43:18.324Z,24.47
2022-08-19T18:46:07.072Z,24.47
2022-08-19T18:48:54.279Z,24.40
2022-08-19T18:51:28.111Z,24.45
2022-08-19T18:53:58.865Z,24.25
2022-08-19T18:56:31.762Z,23.98
2022-08-19T19:10:35.469Z,23.80
2022-08-19T19:13:04.589Z,23.84
2022-08-19T19:15:33.686Z,23.77
2022-08-19T19:18:02.385Z,23.52
2022-08-19T19:20:35.304Z,23.54
2022-08-19T19:23:05.515Z,23.51
2022-08-19T19:25:50.050Z,23.36
2022-08-19T19:28:23.873Z,23.23
2022-08-19T19:30:54.239Z,23.17
2022-08-19T19:33:22.862Z,23.18
2022-08-19T19:35:51.635Z,23.32
2022-08-19T19:38:20.327Z,23.13
2022-08-19T19:40:50.134Z,23.05
2022-08-19T19:43:19.125Z,23.01
2022-08-19T19:45:49.348Z,22.96
2022-08-19T19:48:17.983Z,22.95
2022-08-19T19:50:56.050Z,22.83
2022-08-19T19:53:26.817Z,23.05
2022-08-19T19:55:58.862Z,22.84
2022-08-19T19:58:29.004Z,22.91
2022-08-19T20:00:59.611Z,22.91
2022-08-19T20:03:30.011Z,22.85
2022-08-19T20:06:00.337Z,22.73
2022-08-19T20:08:47.320Z,22.72
2022-08-19T20:11:31.748Z,22.65
2022-08-19T20:14:02.820Z,22.67
2022-08-19T20:16:32.336Z,22.65
2022-08-19T20:19:02.632Z,22.43
2022-08-19T20:21:33.278Z,22.41
2022-08-19T20:24:08.971Z,22.35
2022-08-19T20:26:40.065Z,22.52
2022-08-19T20:29:29.242Z,22.41
2022-08-19T20:31:59.494Z,22.31
2022-08-19T20:34:28.972Z,22.21
2022-08-19T20:36:57.622Z,22.23
2022-08-19T20:39:26.379Z,22.25
2022-08-19T20:41:56.674Z,22.17
2022-08-19T20:44:25.863Z,22.17
2022-08-19T20:46:57.555Z,22.17
2022-08-19T20:49:27.821Z,22.12
2022-08-19T20:51:57.916Z,22.07
2022-08-19T20:54:27.396Z,21.90
2022-08-19T20:56:57.544Z,21.80
2022-08-19T20:59:27.122Z,21.72
2022-08-19T21:01:57.523Z,21.62
2022-08-19T21:04:27.606Z,21.51
2022-08-19T21:06:56.440Z,21.59
2022-08-19T21:09:25.506Z,21.42
2022-08-19T21:11:54.419Z,21.60
2022-08-19T21:14:24.582Z,21.62
2022-08-19T21:16:53.698Z,21.64
2022-08-19T21:19:24.030Z,21.49
2022-08-19T21:21:53.369Z,21.54
2022-08-19T21:24:26.302Z,21.77
2022-08-19T21:27:00.900Z,21.88
2022-08-19T21:29:32.096Z,21.93
2022-08-19T21:32:01.676Z,21.86
2022-08-19T21:34:30.238Z,21.83
2022-08-19T21:36:58.811Z,21.69
2022-08-19T21:39:27.607Z,21.47
2022-08-19T21:41:56.481Z,21.43
2022-08-19T21:44:25.242Z,21.31
2022-08-19T21:46:55.245Z,21.25
2022-08-19T21:49:24.098Z,21.29
2022-08-19T21:51:53.894Z,21.17
2022-08-19T21:54:22.315Z,21.26
2022-08-19T21:56:51.403Z,21.47
2022-08-19T21:59:20.925Z,21.63
2022-08-19T22:01:58.816Z,21.60
2022-08-19T22:04:36.196Z,21.70
2022-08-19T22:07:04.908Z,21.69
2022-08-19T22:09:33.795Z,21.56
2022-08-19T22:12:02.526Z,21.66
2022-08-19T22:14:31.270Z,21.54
2022-08-19T22:17:01.049Z,21.52
2022-08-19T22:19:30.335Z,21.52
2022-08-19T22:22:00.363Z,21.77
2022-08-19T22:24:28.985Z,21.78
2022-08-19T22:26:57.586Z,21.71
2022-08-19T22:29:33.814Z,21.72
2022-08-19T22:32:23.001Z,21.68
2022-08-19T22:34:51.939Z,21.53
2022-08-19T22:37:22.768Z,21.49
2022-08-19T22:39:51.511Z,21.50
2022-08-19T22:42:20.825Z,21.38
2022-08-19T22:44:49.835Z,21.32
2022-08-19T22:47:19.347Z,21.32
2022-08-19T22:49:48.635Z,21.20
2022-08-19T22:52:19.851Z,21.24
2022-08-19T22:54:52.664Z,21.22
2022-08-19T22:57:22.480Z,21.14
2022-08-19T22:59:55.599Z,21.25
2022-08-19T23:02:32.528Z,21.14
2022-08-19T23:05:02.446Z,21.15
2022-08-19T23:07:31.489Z,21.21
2022-08-19T23:10:01.649Z,21.19
2022-08-19T23:12:32.450Z,21.03
2022-08-19T23:15:04.006Z,21.08
2022-08-19T23:17:33.662Z,21.06
2022-08-19T23:20:02.712Z,21.18
2022-08-19T23:22:31.151Z,21.07
2022-08-19T23:25:05.433Z,21.06
2022-08-19T23:27:51.638Z,21.04
2022-08-19T23:30:29.505Z,21.02
2022-08-19T23:33:00.916Z,20.95
2022-08-19T23:35:34.756Z,20.81
2022-08-19T23:38:04.894Z,20.79
2022-08-19T23:40:36.115Z,20.73
2022-08-19T23:43:07.960Z,20.73
2022-08-19T23:45:39.859Z,20.67
2022-08-19T23:48:10.086Z,20.68
2022-08-19T23:50:41.230Z,20.73
2022-08-19T23:53:13.258Z,20.76
2022-08-19T23:55:46.639Z,20.79
2022-08-19T23:58:18.205Z,20.71
